Time;durP1;ratioP1;P1;durP2;ratioP2;P2;SDS_P1;SDS_P2;PMS_P1;PMS_P2;Temp;Humidity;BMP_temperature;BMP_pressure;BME280_temperature;BME280_humidity;BME280_pressure;Samples;Min_cycle;Max_cycle;Signal;HPM_P1;HPM_P2
2022/09/03 00:01:23;;;;;;;4.10;2.63;;;;;;;18.64;65.69;97740.13;4187958;28;20626;-85
2022/09/03 00:03:29;;;;;;;3.20;2.47;;;;;;;18.61;65.98;97738.66;4186822;28;21215;-85
2022/09/03 00:05:38;;;;;;;5.20;2.73;;;;;;;18.60;65.86;97736.19;4188789;28;20629;-85
2022/09/03 00:07:48;;;;;;;3.23;2.70;;;;;;;18.57;66.14;97733.88;4182086;28;21257;-85
2022/09/03 00:09:55;;;;;;;3.30;3.00;;;;;;;18.55;66.01;97730.53;4191245;28;21237;-85
2022/09/03 00:12:03;;;;;;;3.13;2.83;;;;;;;18.50;66.20;97731.03;4174929;28;20624;-85
2022/09/03 00:14:09;;;;;;;3.43;2.73;;;;;;;18.48;66.30;97735.66;4187730;28;20626;-86
2022/09/03 00:16:14;;;;;;;3.20;2.90;;;;;;;18.43;66.26;97729.19;4183425;28;21220;-85
2022/09/03 00:18:21;;;;;;;3.63;3.20;;;;;;;18.41;66.67;97726.72;4201603;28;20621;-85
2022/09/03 00:20:28;;;;;;;3.37;3.07;;;;;;;18.38;67.25;97725.41;4169783;28;20981;-85
2022/09/03 00:22:35;;;;;;;3.53;2.97;;;;;;;18.34;66.52;97732.81;4178665;28;21296;-85
2022/09/03 00:24:41;;;;;;;3.70;2.57;;;;;;;18.31;66.98;97727.88;4189358;28;20623;-85
2022/09/03 00:26:45;;;;;;;3.80;2.73;;;;;;;18.27;67.60;97729.16;4167383;28;20621;-85
2022/09/03 00:28:52;;;;;;;4.33;3.30;;;;;;;18.24;67.11;97718.94;4187280;28;20607;-84
2022/09/03 00:31:05;;;;;;;3.07;2.77;;;;;;;18.22;66.98;97722.69;4189207;28;21225;-85
2022/09/03 00:33:12;;;;;;;4.40;2.63;;;;;;;18.22;66.98;97728.84;4191602;28;20640;-85
2022/09/03 00:35:20;;;;;;;3.33;2.80;;;;;;;18.22;66.60;97735.91;4187564;28;20625;-85
2022/09/03 00:37:23;;;;;;;3.00;2.50;;;;;;;18.22;66.97;97723.56;4186645;28;20632;-85
2022/09/03 00:39:30;;;;;;;3.03;2.60;;;;;;;18.22;66.51;97726.19;4183312;28;20650;-85
2022/09/03 00:41:37;;;;;;;3.07;2.63;;;;;;;18.21;66.61;97724.53;4186147;28;21385;-85
2022/09/03 00:44:00;;;;;;;2.90;2.57;;;;;;;18.19;66.80;97721.22;4170596;28;20633;-85
2022/09/03 00:46:08;;;;;;;5.80;2.60;;;;;;;18.17;66.24;97723.19;4172105;28;21235;-86
2022/09/03 00:48:17;;;;;;;4.90;2.70;;;;;;;18.16;66.68;97723.34;4173615;28;20751;-85
2022/09/03 00:50:32;;;;;;;3.67;2.20;;;;;;;18.17;66.86;97730.28;4185917;28;21019;-88
2022/09/03 00:52:46;;;;;;;3.03;2.40;;;;;;;18.15;67.10;97734.91;4183740;28;20721;-85
2022/09/03 00:54:56;;;;;;;7.17;3.20;;;;;;;18.13;67.07;97727.16;4185027;28;20668;-85
2022/09/03 00:57:06;;;;;;;3.47;2.70;;;;;;;18.14;67.28;97728.78;4188928;28;20633;-85
2022/09/03 00:59:21;;;;;;;4.83;2.67;;;;;;;18.15;67.32;97727.00;4188959;28;21304;-85
2022/09/03 01:01:29;;;;;;;2.70;2.50;;;;;;;18.16;67.25;97723.34;4170052;28;20633;-84
2022/09/03 01:03:36;;;;;;;3.10;2.33;;;;;;;18.16;67.87;97715.41;4187609;28;20667;-84
2022/09/03 01:05:52;;;;;;;2.80;2.50;;;;;;;18.17;67.29;97717.09;4184785;28;20623;-85
2022/09/03 01:08:10;;;;;;;3.47;2.60;;;;;;;18.17;67.85;97715.25;4184112;28;21098;-85
2022/09/03 01:10:24;;;;;;;3.40;3.00;;;;;;;18.17;67.23;97715.25;4171790;28;21047;-85
2022/09/03 01:12:35;;;;;;;2.83;2.57;;;;;;;18.16;67.19;97718.06;4175948;28;20657;-85
2022/09/03 01:14:46;;;;;;;4.50;3.23;;;;;;;18.15;67.19;97725.16;4183728;28;20672;-85
2022/09/03 01:16:52;;;;;;;2.47;2.27;;;;;;;18.15;66.99;97721.72;4190167;28;20634;-85
2022/09/03 01:19:04;;;;;;;2.93;2.63;;;;;;;18.17;66.94;97717.09;4185321;28;20676;-85
2022/09/03 01:21:28;;;;;;;2.97;2.50;;;;;;;18.21;67.52;97713.97;4188744;28;21067;-85
2022/09/03 01:24:06;;;;;;;2.93;2.63;;;;;;;18.26;67.04;97718.78;4179267;28;20649;-85
2022/09/03 01:26:22;;;;;;;3.07;2.77;;;;;;;18.28;67.17;97717.63;4189594;28;20641;-85
2022/09/03 01:28:44;;;;;;;4.23;2.70;;;;;;;18.32;66.43;97721.59;4179387;28;20630;-85
2022/09/03 01:30:55;;;;;;;2.90;2.33;;;;;;;18.37;66.85;97729.03;4185351;28;20677;-85
2022/09/03 01:33:05;;;;;;;4.40;2.50;;;;;;;18.39;66.69;97727.88;4183839;28;20643;-85
2022/09/03 01:35:15;;;;;;;3.40;2.33;;;;;;;18.39;67.69;97725.25;4184823;28;20618;-85
2022/09/03 01:37:27;;;;;;;3.23;2.80;;;;;;;18.42;66.83;97717.00;4185388;28;20626;-85
2022/09/03 01:39:34;;;;;;;5.17;2.70;;;;;;;18.47;66.49;97720.78;4183282;28;20658;-84
2022/09/03 01:44:15;;;;;;;3.53;2.60;;;;;;;18.54;67.24;97723.63;4181639;28;20626;-85
2022/09/03 01:46:21;;;;;;;2.80;2.50;;;;;;;18.53;66.68;97729.88;4187028;28;21378;-85
2022/09/03 01:48:40;;;;;;;4.10;2.60;;;;;;;18.52;66.95;97723.78;4185800;28;20623;-85
2022/09/03 01:50:46;;;;;;;2.50;2.30;;;;;;;18.49;66.82;97724.13;4185448;28;21388;-85
2022/09/03 01:52:53;;;;;;;2.83;2.40;;;;;;;18.48;67.33;97717.16;4186338;28;20680;-85
2022/09/03 01:55:06;;;;;;;3.87;2.77;;;;;;;18.51;66.58;97730.06;4173435;28;20627;-85
2022/09/03 01:57:21;;;;;;;4.00;2.60;;;;;;;18.45;66.65;97727.25;4181886;28;20706;-85
2022/09/03 01:59:45;;;;;;;3.70;2.67;;;;;;;18.44;66.91;97728.22;4202120;28;20695;-85
2022/09/03 02:01:55;;;;;;;6.47;2.97;;;;;;;18.41;66.97;97722.44;4189244;28;20633;-85
2022/09/03 02:03:59;;;;;;;3.80;2.80;;;;;;;18.38;66.57;97720.94;4188579;28;20657;-85
2022/09/03 02:06:05;;;;;;;3.43;2.47;;;;;;;18.39;67.43;97734.97;4187390;28;20641;-85
2022/09/03 02:08:10;;;;;;;2.97;2.43;;;;;;;18.40;67.41;97733.97;4187608;28;21220;-84
2022/09/03 02:10:15;;;;;;;3.50;2.67;;;;;;;18.41;67.05;97735.66;4186887;28;20683;-85
2022/09/03 02:12:20;;;;;;;2.97;2.57;;;;;;;18.47;67.12;97741.91;4183687;28;20807;-85
2022/09/03 02:14:24;;;;;;;2.50;2.30;;;;;;;18.52;67.25;97738.78;4182654;28;20944;-85
2022/09/03 02:16:31;;;;;;;2.80;2.50;;;;;;;18.57;66.27;97734.69;4189483;28;20611;-85
2022/09/03 02:18:40;;;;;;;2.40;2.13;;;;;;;18.62;66.46;97734.19;4182551;28;20635;-84
2022/09/03 02:20:43;;;;;;;4.30;2.43;;;;;;;18.64;66.40;97733.06;4181668;28;20688;-86
2022/09/03 02:22:47;;;;;;;3.10;2.57;;;;;;;18.69;66.20;97736.03;4186425;28;20634;-85
2022/09/03 02:24:50;;;;;;;2.57;2.37;;;;;;;18.72;66.89;97746.28;4186214;28;20687;-84
2022/09/03 02:26:54;;;;;;;4.43;2.67;;;;;;;18.76;66.79;97737.00;4179784;28;20652;-85
2022/09/03 02:28:57;;;;;;;3.03;2.23;;;;;;;18.78;66.70;97739.50;4180671;28;20622;-85
2022/09/03 02:31:01;;;;;;;3.47;2.70;;;;;;;18.77;66.02;97738.69;4183996;28;20629;-85
2022/09/03 02:33:06;;;;;;;4.50;2.80;;;;;;;18.82;65.91;97736.34;4183456;28;20758;-85
2022/09/03 02:35:09;;;;;;;2.90;2.27;;;;;;;18.83;66.01;97745.13;4188778;28;20668;-85
2022/09/03 02:37:17;;;;;;;2.77;2.53;;;;;;;18.83;66.51;97740.66;4181967;28;20678;-85
2022/09/03 02:39:20;;;;;;;3.97;2.50;;;;;;;18.79;66.75;97741.97;4189018;28;20614;-85
2022/09/03 02:41:26;;;;;;;3.63;2.60;;;;;;;18.80;66.80;97734.88;4186417;28;20950;-85
2022/09/03 02:43:34;;;;;;;2.90;2.27;;;;;;;18.81;67.32;97742.66;4188825;28;20637;-85
2022/09/03 02:45:43;;;;;;;2.20;2.00;;;;;;;18.85;66.83;97740.50;4173229;28;20634;-85
2022/09/03 02:47:48;;;;;;;2.90;2.57;;;;;;;18.86;67.09;97742.16;4183723;28;20608;-85
2022/09/03 02:49:52;;;;;;;4.20;2.77;;;;;;;18.86;66.09;97737.69;4188473;28;21091;-85
2022/09/03 02:51:59;;;;;;;3.37;2.43;;;;;;;18.83;67.21;97745.94;4186546;28;21046;-86
2022/09/03 02:54:02;;;;;;;3.43;2.40;;;;;;;18.84;66.62;97750.25;4187355;28;20687;-85
2022/09/03 02:56:06;;;;;;;3.03;2.60;;;;;;;18.82;66.52;97743.47;4192505;28;21004;-84
2022/09/03 02:58:09;;;;;;;2.43;2.23;;;;;;;18.80;66.75;97745.47;4188990;28;21167;-85
2022/09/03 03:00:13;;;;;;;3.00;2.53;;;;;;;18.76;66.96;97742.28;4188463;28;21302;-85
2022/09/03 03:02:16;;;;;;;5.23;2.60;;;;;;;18.73;66.59;97732.06;4190187;28;20627;-85
2022/09/03 03:04:20;;;;;;;3.07;2.73;;;;;;;18.68;66.67;97723.78;4175994;28;20666;-85
2022/09/03 03:06:24;;;;;;;3.03;2.73;;;;;;;18.70;66.89;97723.63;4188827;28;21237;-85
2022/09/03 03:08:29;;;;;;;2.93;2.40;;;;;;;18.70;66.96;97728.91;4182940;28;20664;-85
2022/09/03 03:10:32;;;;;;;3.50;2.60;;;;;;;18.73;67.16;97725.94;4191714;28;20665;-85
2022/09/03 03:12:35;;;;;;;2.80;2.43;;;;;;;18.74;66.63;97727.63;4175528;28;20688;-85
2022/09/03 03:14:38;;;;;;;2.80;2.50;;;;;;;18.74;66.76;97723.16;4187881;28;21195;-85
2022/09/03 03:16:41;;;;;;;2.60;2.03;;;;;;;18.75;66.60;97731.88;4184934;28;20626;-85
2022/09/03 03:18:45;;;;;;;3.10;2.80;;;;;;;18.73;67.14;97734.69;4183267;28;20728;-86
2022/09/03 03:20:49;;;;;;;4.67;2.70;;;;;;;18.68;66.73;97726.44;4166527;28;20655;-85
2022/09/03 03:22:53;;;;;;;3.47;2.77;;;;;;;18.67;67.13;97723.97;4181550;28;20642;-85
2022/09/03 03:24:56;;;;;;;3.53;2.40;;;;;;;18.68;67.10;97728.25;4189384;28;20653;-85
2022/09/03 03:26:59;;;;;;;3.03;2.50;;;;;;;18.67;66.88;97732.72;4192811;28;20613;-85
2022/09/03 03:29:04;;;;;;;3.00;2.30;;;;;;;18.72;67.02;97740.13;4184259;28;20618;-85
2022/09/03 03:31:08;;;;;;;3.40;2.90;;;;;;;18.72;66.62;97745.44;4172066;28;20635;-85
2022/09/03 03:33:11;;;;;;;3.10;2.43;;;;;;;18.72;66.53;97748.06;4192279;28;21398;-85
2022/09/03 03:35:14;;;;;;;3.70;2.60;;;;;;;18.72;67.66;97759.50;4172845;28;20678;-85
2022/09/03 03:37:17;;;;;;;3.07;2.33;;;;;;;18.72;67.17;97754.19;4184518;28;21217;-86
2022/09/03 03:39:22;;;;;;;3.33;2.40;;;;;;;18.72;66.74;97751.56;4191095;28;20634;-85
2022/09/03 03:41:27;;;;;;;3.10;2.40;;;;;;;18.72;66.60;97761.28;4190977;28;21280;-85
2022/09/03 03:43:32;;;;;;;2.60;2.40;;;;;;;18.71;66.66;97755.19;4191295;28;20626;-85
2022/09/03 03:45:35;;;;;;;3.07;2.77;;;;;;;18.68;66.94;97758.16;4191109;28;20702;-85
2022/09/03 03:47:38;;;;;;;5.10;2.47;;;;;;;18.67;66.88;97756.50;4183582;28;20637;-85
2022/09/03 03:49:41;;;;;;;2.80;2.40;;;;;;;18.64;66.57;97758.63;4188856;28;20621;-85
2022/09/03 03:51:44;;;;;;;2.80;2.23;;;;;;;18.63;66.65;97760.47;4188327;28;21461;-85
2022/09/03 03:53:47;;;;;;;3.50;2.90;;;;;;;18.64;66.80;97759.47;4189077;28;20665;-85
2022/09/03 03:56:03;;;;;;;3.40;2.90;;;;;;;18.62;66.80;97761.44;4188976;28;20622;-86
2022/09/03 03:58:06;;;;;;;3.87;2.97;;;;;;;18.64;66.63;97754.19;4190876;28;20621;-85
2022/09/03 04:00:10;;;;;;;3.87;3.40;;;;;;;18.60;67.33;97755.50;4188097;28;20639;-85
2022/09/03 04:02:18;;;;;;;4.63;3.00;;;;;;;18.54;67.25;97758.78;4186492;28;20724;-85
2022/09/03 04:04:21;;;;;;;5.23;3.80;;;;;;;18.53;67.61;97751.03;4187570;28;20661;-85
2022/09/03 04:06:24;;;;;;;7.17;3.20;;;;;;;18.52;67.70;97754.63;4184973;28;20657;-85
2022/09/03 04:08:28;;;;;;;4.00;3.60;;;;;;;18.49;68.02;97749.69;4183781;28;20697;-85
2022/09/03 04:10:31;;;;;;;4.57;3.07;;;;;;;18.49;68.39;97749.69;4186959;28;20721;-85
2022/09/03 04:12:35;;;;;;;5.93;3.40;;;;;;;18.49;68.14;97757.59;4183766;28;20998;-85
2022/09/03 04:14:38;;;;;;;3.80;3.20;;;;;;;18.46;68.53;97753.50;4188252;28;21301;-85
2022/09/03 04:16:42;;;;;;;3.37;3.07;;;;;;;18.44;68.21;97747.53;4175030;28;20646;-85
2022/09/03 04:18:46;;;;;;;4.10;3.23;;;;;;;18.44;68.55;97754.63;4191685;28;20615;-85
2022/09/03 04:20:49;;;;;;;4.77;2.97;;;;;;;18.42;68.58;97752.16;4171339;28;20626;-84
2022/09/03 04:22:52;;;;;;;3.17;2.83;;;;;;;18.41;68.67;97753.13;4186096;28;20681;-85
2022/09/03 04:24:55;;;;;;;3.40;2.87;;;;;;;18.39;68.73;97759.56;4184571;28;20702;-85
2022/09/03 04:26:58;;;;;;;3.20;2.70;;;;;;;18.39;68.42;97756.94;4170436;28;20649;-85
2022/09/03 04:29:04;;;;;;;3.33;2.70;;;;;;;18.39;68.42;97753.44;4188644;28;21047;-85
2022/09/03 04:31:08;;;;;;;3.00;2.70;;;;;;;18.37;68.48;97752.78;4201647;28;21040;-85
2022/09/03 04:33:10;;;;;;;3.27;2.97;;;;;;;18.38;68.76;97746.53;4204220;28;20636;-84
2022/09/03 04:35:19;;;;;;;4.33;3.10;;;;;;;18.36;68.69;97746.69;4189366;28;21264;-85
2022/09/03 04:37:22;;;;;;;3.73;2.93;;;;;;;18.34;68.96;97746.00;4190572;28;20670;-85
2022/09/03 04:39:25;;;;;;;3.67;3.13;;;;;;;18.34;68.58;97750.47;4189612;28;20630;-85
2022/09/03 04:41:29;;;;;;;4.50;3.20;;;;;;;18.31;69.08;97750.78;4190003;28;21007;-85
2022/09/03 04:43:32;;;;;;;3.73;2.90;;;;;;;18.33;68.65;97754.09;4190451;28;20705;-84
2022/09/03 04:45:37;;;;;;;4.90;3.27;;;;;;;18.34;69.23;97761.03;4174111;28;20625;-85
2022/09/03 04:47:41;;;;;;;7.50;3.03;;;;;;;18.33;69.40;97760.22;4184678;28;20661;-85
2022/09/03 04:49:44;;;;;;;3.07;2.77;;;;;;;18.32;69.76;97763.84;4186768;28;21172;-85
2022/09/03 04:51:47;;;;;;;4.53;2.80;;;;;;;18.31;69.61;97769.28;4185606;28;20665;-85
2022/09/03 04:53:55;;;;;;;4.77;3.53;;;;;;;18.32;68.75;97763.84;4191132;28;20625;-85
2022/09/03 04:55:58;;;;;;;3.80;3.37;;;;;;;18.29;69.49;97764.16;4189622;28;20636;-84
2022/09/03 04:58:01;;;;;;;3.00;2.70;;;;;;;18.23;68.85;97764.78;4187672;28;21412;-84
2022/09/03 05:00:09;;;;;;;4.23;3.20;;;;;;;18.17;69.41;97754.88;4183324;28;20639;-85
2022/09/03 05:02:14;;;;;;;3.10;2.77;;;;;;;18.15;69.88;97766.59;4196995;28;20741;-85
2022/09/03 05:04:18;;;;;;;4.17;3.20;;;;;;;18.17;70.40;97760.16;4183208;28;20939;-85
2022/09/03 05:06:20;;;;;;;3.70;3.27;;;;;;;18.21;70.70;97761.50;4179801;28;20617;-85
2022/09/03 05:08:25;;;;;;;3.67;3.33;;;;;;;18.23;70.25;97753.41;4172558;28;20650;-85
2022/09/03 05:10:28;;;;;;;6.77;3.47;;;;;;;18.27;70.32;97763.50;4188198;28;21356;-87
2022/09/03 05:12:32;;;;;;;4.20;2.90;;;;;;;18.30;69.80;97768.47;4167771;28;20626;-85
2022/09/03 05:14:35;;;;;;;3.20;2.77;;;;;;;18.35;70.27;97773.25;4187677;28;20640;-85
2022/09/03 05:16:38;;;;;;;6.40;3.10;;;;;;;18.36;69.92;97774.91;4185906;28;21076;-85
2022/09/03 05:18:43;;;;;;;4.17;3.00;;;;;;;18.36;70.13;97764.34;4188432;28;20667;-85
2022/09/03 05:20:47;;;;;;;3.57;3.10;;;;;;;18.29;69.91;97765.97;4189456;28;20641;-85
2022/09/03 05:22:50;;;;;;;3.47;3.17;;;;;;;18.31;70.05;97769.28;4183490;28;20671;-85
2022/09/03 05:24:55;;;;;;;4.20;3.20;;;;;;;18.34;71.09;97769.78;4184402;28;21192;-85
2022/09/03 05:26:58;;;;;;;3.33;2.93;;;;;;;18.36;71.36;97765.19;4186511;28;20683;-85
2022/09/03 05:29:06;;;;;;;3.37;3.07;;;;;;;18.40;71.23;97769.13;4182151;28;20624;-85
2022/09/03 05:31:11;;;;;;;4.33;3.10;;;;;;;18.41;70.39;97768.16;4183650;28;20636;-85
2022/09/03 05:33:15;;;;;;;3.70;2.70;;;;;;;18.46;70.65;97765.84;4187362;28;20623;-85
2022/09/03 05:35:19;;;;;;;3.60;2.90;;;;;;;18.48;70.27;97771.81;4187473;28;21181;-85
2022/09/03 05:37:27;;;;;;;5.97;3.60;;;;;;;18.51;70.44;97774.16;4186828;28;20630;-85
2022/09/03 05:39:30;;;;;;;3.80;3.40;;;;;;;18.50;70.41;97770.66;4191117;28;20634;-85
2022/09/03 05:41:34;;;;;;;4.43;3.27;;;;;;;18.49;70.25;97763.75;4184741;28;20629;-85
2022/09/03 05:43:37;;;;;;;4.20;3.47;;;;;;;18.52;70.76;97773.13;4186124;28;20615;-85
2022/09/03 05:45:41;;;;;;;3.47;3.17;;;;;;;18.54;70.65;97771.19;4185734;28;20615;-85
2022/09/03 05:47:44;;;;;;;6.53;3.20;;;;;;;18.59;70.76;97774.16;4187701;28;21309;-85
2022/09/03 05:49:47;;;;;;;4.50;2.97;;;;;;;18.62;70.78;97774.66;4189804;28;20683;-85
2022/09/03 05:51:53;;;;;;;4.07;2.83;;;;;;;18.65;70.22;97771.69;4186853;28;20902;-85
2022/09/03 05:53:57;;;;;;;4.70;3.40;;;;;;;18.69;70.06;97775.66;4184014;28;21147;-85
2022/09/03 05:56:01;;;;;;;3.83;3.20;;;;;;;18.75;70.43;97777.66;4189497;28;20759;-85
2022/09/03 05:58:04;;;;;;;5.73;3.43;;;;;;;18.83;70.00;97776.84;4186905;28;20621;-85
2022/09/03 06:00:09;;;;;;;4.00;3.37;;;;;;;19.04;70.46;97778.06;4188170;28;20680;-85
2022/09/03 06:02:13;;;;;;;4.20;3.33;;;;;;;19.47;69.93;97789.16;4185241;28;20666;-84
2022/09/03 06:04:17;;;;;;;3.47;3.10;;;;;;;19.84;68.40;97792.88;4189422;28;20621;-85
2022/09/03 06:06:24;;;;;;;7.03;3.37;;;;;;;20.09;69.34;97790.03;4189068;28;20685;-85
2022/09/03 06:08:29;;;;;;;5.70;3.57;;;;;;;20.32;66.93;97795.41;4190174;28;20660;-85
2022/09/03 06:10:32;;;;;;;3.73;3.00;;;;;;;20.48;66.90;97799.63;4188828;28;20634;-85
2022/09/03 06:12:43;;;;;;;5.13;3.03;;;;;;;20.73;67.10;97798.53;4183330;28;20724;-85
2022/09/03 06:14:46;;;;;;;4.00;3.53;;;;;;;20.78;67.00;97798.84;4187988;28;20705;-85
2022/09/03 06:16:51;;;;;;;4.50;3.07;;;;;;;20.79;65.46;97805.78;4189452;28;21227;-85
2022/09/03 06:18:55;;;;;;;3.60;3.13;;;;;;;20.75;66.55;97798.34;4190473;28;20661;-85
2022/09/03 06:21:00;;;;;;;4.00;3.10;;;;;;;20.64;65.41;97801.38;4173792;28;20629;-84
2022/09/03 06:23:03;;;;;;;4.50;3.47;;;;;;;20.53;66.48;97797.28;4189657;28;20663;-85
2022/09/03 06:25:08;;;;;;;6.07;3.47;;;;;;;20.48;66.78;97797.00;4187345;28;20635;-84
2022/09/03 06:27:11;;;;;;;4.87;3.27;;;;;;;20.47;66.86;97797.16;4171264;28;20662;-85
2022/09/03 06:29:18;;;;;;;4.20;2.80;;;;;;;20.47;68.51;97799.81;4189820;28;20631;-85
2022/09/03 06:31:22;;;;;;;3.70;2.87;;;;;;;20.44;68.20;97792.19;4175115;28;20613;-85
2022/09/03 06:33:25;;;;;;;4.30;3.40;;;;;;;20.43;67.18;97796.69;4176344;28;20681;-85
2022/09/03 06:35:28;;;;;;;6.63;3.40;;;;;;;20.44;67.08;97800.16;4171659;28;20624;-85
2022/09/03 06:37:39;;;;;;;3.50;3.20;;;;;;;20.45;66.38;97801.81;4188319;28;20723;-85
2022/09/03 06:39:42;;;;;;;4.40;3.27;;;;;;;20.44;67.30;97800.97;4187557;28;21613;-85
2022/09/03 06:41:50;;;;;;;5.23;3.37;;;;;;;20.43;67.92;97794.03;4192221;28;20624;-85
2022/09/03 06:44:02;;;;;;;3.77;3.13;;;;;;;20.45;67.41;97796.50;4175982;28;20659;-85
2022/09/03 06:46:07;;;;;;;4.57;3.27;;;;;;;20.52;68.48;97803.59;4184509;28;20813;-85
2022/09/03 06:48:10;;;;;;;3.77;3.10;;;;;;;20.58;68.29;97802.06;4193036;28;21431;-85
2022/09/03 06:50:14;;;;;;;4.00;3.50;;;;;;;20.62;67.01;97806.84;4192989;28;20631;-85
2022/09/03 06:52:17;;;;;;;4.67;3.20;;;;;;;20.66;68.01;97800.22;4190940;28;20633;-85
2022/09/03 06:54:20;;;;;;;7.00;3.33;;;;;;;20.63;67.62;97800.56;4193978;28;20709;-85
2022/09/03 06:56:25;;;;;;;4.43;3.50;;;;;;;20.61;66.68;97793.78;4189241;28;21069;-85
2022/09/03 06:58:31;;;;;;;3.53;3.03;;;;;;;20.61;67.71;97799.91;4187438;28;21421;-84
2022/09/03 07:00:34;;;;;;;5.00;3.40;;;;;;;20.67;67.57;97793.91;4191234;28;20974;-85
2022/09/03 07:02:40;;;;;;;5.40;3.90;;;;;;;20.72;68.95;97804.84;4187572;28;20659;-85
2022/09/03 07:04:48;;;;;;;3.70;3.40;;;;;;;20.82;67.04;97800.13;4185873;28;20623;-85
2022/09/03 07:06:51;;;;;;;4.47;3.60;;;;;;;20.92;67.32;97806.06;4190889;28;20995;-85
2022/09/03 07:08:58;;;;;;;4.03;3.30;;;;;;;20.98;67.30;97808.81;4191775;28;21293;-85
2022/09/03 07:11:04;;;;;;;4.23;3.83;;;;;;;21.03;68.92;97809.16;4187398;28;21220;-84
2022/09/03 07:13:07;;;;;;;4.57;3.63;;;;;;;21.09;67.11;97816.38;4186893;28;20635;-85
2022/09/03 07:15:11;;;;;;;4.60;3.53;;;;;;;21.16;67.55;97808.56;4189751;28;20628;-85
2022/09/03 07:17:15;;;;;;;4.20;3.70;;;;;;;21.24;67.63;97806.66;4192812;28;20635;-85
2022/09/03 07:19:18;;;;;;;4.67;4.17;;;;;;;21.32;68.02;97812.72;4183884;28;20636;-85
2022/09/03 07:21:22;;;;;;;4.07;3.67;;;;;;;21.39;69.18;97819.00;4188346;28;20627;-85
2022/09/03 07:23:26;;;;;;;4.50;3.80;;;;;;;21.48;69.42;97809.16;4192767;28;20675;-85
2022/09/03 07:25:30;;;;;;;4.17;3.57;;;;;;;21.55;67.79;97810.09;4192372;28;20712;-85
2022/09/03 07:27:34;;;;;;;4.47;3.73;;;;;;;21.63;68.82;97812.66;4188785;28;21265;-85
2022/09/03 07:29:37;;;;;;;4.80;3.90;;;;;;;21.66;67.57;97813.13;4188172;28;20635;-84
2022/09/03 07:31:43;;;;;;;5.67;4.20;;;;;;;21.69;67.03;97817.25;4174408;28;20618;-85
2022/09/03 07:33:46;;;;;;;4.10;3.70;;;;;;;21.71;67.98;97808.13;4193652;28;20628;-85
2022/09/03 07:35:49;;;;;;;4.40;4.00;;;;;;;21.74;67.55;97821.03;4185587;28;20734;-85
2022/09/03 07:37:53;;;;;;;4.50;4.00;;;;;;;21.76;67.52;97827.81;4184926;28;20667;-85
2022/09/03 07:39:57;;;;;;;4.70;3.73;;;;;;;21.81;68.40;97833.41;4189364;28;20636;-85
2022/09/03 07:42:01;;;;;;;4.10;3.70;;;;;;;21.86;67.70;97832.84;4189504;28;20628;-85
2022/09/03 07:44:05;;;;;;;4.20;3.80;;;;;;;21.89;67.74;97829.84;4187992;28;20693;-85
2022/09/03 07:46:11;;;;;;;4.20;3.80;;;;;;;21.91;67.24;97823.34;4187897;28;20654;-85
2022/09/03 07:48:16;;;;;;;4.10;3.60;;;;;;;21.89;67.84;97830.69;4188687;28;20656;-85
2022/09/03 07:50:19;;;;;;;4.93;3.90;;;;;;;21.89;67.17;97824.53;4187691;28;20621;-85
2022/09/03 07:52:23;;;;;;;4.80;3.93;;;;;;;21.88;67.25;97817.56;4185022;28;20621;-85
2022/09/03 07:54:26;;;;;;;4.70;3.73;;;;;;;21.91;67.19;97817.22;4189575;28;20661;-86
2022/09/03 07:56:30;;;;;;;7.80;4.30;;;;;;;21.99;68.03;97815.28;4187696;28;20621;-86
2022/09/03 07:58:35;;;;;;;4.67;4.27;;;;;;;22.10;67.25;97817.50;4190016;28;20632;-85
2022/09/03 08:00:38;;;;;;;4.07;3.70;;;;;;;22.36;67.00;97831.22;4172060;28;20634;-85
2022/09/03 08:02:41;;;;;;;6.90;4.30;;;;;;;22.70;66.12;97832.25;4188128;28;20736;-86
2022/09/03 08:04:49;;;;;;;4.30;3.77;;;;;;;23.01;66.01;97841.69;4187592;28;21476;-86
2022/09/03 08:06:54;;;;;;;4.77;3.70;;;;;;;23.22;66.30;97839.88;4175351;28;20657;-86
2022/09/03 08:08:59;;;;;;;4.13;3.70;;;;;;;23.32;64.95;97842.25;4184086;28;20696;-86
2022/09/03 08:11:09;;;;;;;4.10;3.60;;;;;;;23.50;65.47;97834.59;4191460;28;21256;-86
2022/09/03 08:13:12;;;;;;;4.20;3.80;;;;;;;23.58;64.83;97839.81;4191311;28;20629;-86
2022/09/03 08:15:15;;;;;;;4.30;3.90;;;;;;;23.57;65.61;97841.63;4187278;28;20673;-86
2022/09/03 08:17:18;;;;;;;4.13;3.73;;;;;;;23.57;64.81;97838.16;4172052;28;20640;-85
2022/09/03 08:19:22;;;;;;;4.93;4.10;;;;;;;23.60;64.44;97849.25;4190920;28;20636;-85
2022/09/03 08:21:27;;;;;;;5.43;4.20;;;;;;;23.65;63.83;97849.56;4184985;28;21013;-86
2022/09/03 08:23:30;;;;;;;5.83;3.67;;;;;;;23.74;64.80;97845.75;4189834;28;20698;-86
2022/09/03 08:25:33;;;;;;;4.60;3.90;;;;;;;23.94;64.92;97850.19;4192703;28;20752;-86
2022/09/03 08:27:36;;;;;;;4.90;3.90;;;;;;;24.06;64.91;97848.66;4187417;28;20634;-86
2022/09/03 08:29:40;;;;;;;4.70;4.10;;;;;;;24.06;64.17;97845.19;4188577;28;20638;-85
2022/09/03 08:31:44;;;;;;;5.33;3.90;;;;;;;24.13;64.91;97846.03;4174698;28;21224;-86
2022/09/03 08:33:49;;;;;;;6.47;3.70;;;;;;;24.31;63.78;97847.19;4181076;28;20724;-85
2022/09/03 08:35:53;;;;;;;3.97;3.57;;;;;;;24.42;64.08;97844.84;4190281;28;20627;-86
2022/09/03 08:38:04;;;;;;;3.80;3.50;;;;;;;24.40;63.53;97849.56;4190497;28;20633;-86
2022/09/03 08:40:09;;;;;;;4.10;3.70;;;;;;;24.47;64.50;97842.38;4188253;28;20710;-85
2022/09/03 08:42:45;;;;;;;4.10;3.70;;;;;;;24.58;63.70;97846.34;4173776;28;20632;-86
2022/09/03 08:44:50;;;;;;;4.53;3.80;;;;;;;24.63;64.04;97845.56;4122167;28;20762;-86
2022/09/03 08:46:56;;;;;;;5.00;4.50;;;;;;;24.66;63.76;97844.34;4155864;28;20654;-86
2022/09/03 08:49:00;;;;;;;4.40;4.00;;;;;;;24.71;64.15;97850.72;4187007;28;20707;-86
2022/09/03 08:51:03;;;;;;;4.60;3.87;;;;;;;24.79;63.17;97853.25;4184459;28;20704;-86
2022/09/03 08:53:14;;;;;;;4.10;3.70;;;;;;;24.87;63.34;97854.94;4190400;28;20622;-86
2022/09/03 08:55:22;;;;;;;4.20;3.80;;;;;;;25.06;63.28;97859.53;4190685;28;21334;-86
2022/09/03 08:57:25;;;;;;;4.40;3.60;;;;;;;25.34;63.04;97864.56;4182684;28;21839;-85
2022/09/03 08:59:30;;;;;;;4.50;4.10;;;;;;;25.55;62.60;97869.75;4189418;28;20654;-86
2022/09/03 09:01:44;;;;;;;4.83;4.10;;;;;;;25.52;61.83;97861.31;4186686;28;20622;-85
2022/09/03 09:03:55;;;;;;;4.30;3.90;;;;;;;25.43;61.72;97860.66;4170485;28;21233;-86
2022/09/03 09:06:06;;;;;;;3.93;3.53;;;;;;;25.45;62.40;97861.28;4182905;28;20740;-85
2022/09/03 09:08:16;;;;;;;4.57;3.80;;;;;;;25.63;62.08;97859.69;4169212;28;20760;-87
2022/09/03 09:10:24;;;;;;;6.23;4.23;;;;;;;25.63;61.11;97866.88;4174613;28;20663;-86
2022/09/03 09:12:35;;;;;;;4.70;4.30;;;;;;;25.52;61.66;97870.16;4186585;28;20599;-86
2022/09/03 09:14:52;;;;;;;4.53;3.63;;;;;;;25.44;61.38;97867.66;4189773;28;20629;-86
2022/09/03 09:17:01;;;;;;;4.70;4.30;;;;;;;25.38;61.04;97865.81;4184854;28;20725;-86
2022/09/03 09:19:13;;;;;;;4.87;4.30;;;;;;;25.29;61.74;97863.53;4185904;28;21273;-85
2022/09/03 09:21:19;;;;;;;4.67;4.20;;;;;;;25.22;62.75;97866.16;4205212;28;20629;-86
2022/09/03 09:23:30;;;;;;;4.33;3.93;;;;;;;25.20;62.13;97878.09;4207789;28;20623;-86
2022/09/03 09:25:37;;;;;;;4.70;4.30;;;;;;;25.20;62.74;97876.22;4190277;28;20722;-86
2022/09/03 09:27:50;;;;;;;4.47;4.07;;;;;;;25.24;61.26;97880.16;4174700;28;20625;-86
2022/09/03 09:29:55;;;;;;;5.70;4.00;;;;;;;25.24;62.12;97873.97;4180970;28;20626;-85
2022/09/03 09:31:58;;;;;;;5.10;4.50;;;;;;;25.29;61.49;97876.88;4182698;28;20629;-86
2022/09/03 09:34:05;;;;;;;5.03;3.90;;;;;;;25.45;62.66;97879.97;4189222;28;21239;-86
2022/09/03 09:36:12;;;;;;;4.70;4.20;;;;;;;25.59;62.36;97871.00;4187191;28;20638;-86
2022/09/03 09:38:15;;;;;;;5.20;4.23;;;;;;;25.71;61.66;97870.22;4185031;28;20606;-86
2022/09/03 09:40:31;;;;;;;4.60;4.20;;;;;;;25.82;61.40;97876.81;4188633;28;20639;-86
2022/09/03 09:42:34;;;;;;;4.70;4.23;;;;;;;25.89;61.64;97872.28;4186916;28;21004;-85
2022/09/03 09:44:37;;;;;;;5.90;4.50;;;;;;;25.86;61.39;97864.66;4190325;28;20668;-85
2022/09/03 09:46:41;;;;;;;4.93;4.30;;;;;;;25.75;61.08;97867.94;4173962;28;20639;-85
2022/09/03 09:48:49;;;;;;;4.93;4.43;;;;;;;25.65;60.40;97862.19;4165245;28;20671;-85
2022/09/03 09:51:04;;;;;;;5.03;4.43;;;;;;;25.37;60.89;97860.66;4182790;28;20971;-86
2022/09/03 09:53:13;;;;;;;4.93;4.43;;;;;;;25.37;61.21;97855.31;4180990;28;20644;-85
2022/09/03 09:55:19;;;;;;;5.03;4.40;;;;;;;25.72;62.09;97855.81;4188833;28;20703;-86
2022/09/03 09:57:25;;;;;;;6.10;5.43;;;;;;;26.00;60.14;97855.63;4188319;28;20753;-85